Time;durP1;ratioP1;P1;durP2;ratioP2;P2;SDS_P1;SDS_P2;PMS_P1;PMS_P2;Temp;Humidity;BMP_temperature;BMP_pressure;BME280_temperature;BME280_humidity;BME280_pressure;Samples;Min_cycle;Max_cycle;Signal;HPM_P1;HPM_P2
2023/12/06 00:00:12;;;;;;;8.00;5.33;;;;;;;1.19;100.00;100499.75;5074311;28;20528;-75
2023/12/06 00:02:39;;;;;;;3.73;1.60;;;;;;;1.18;100.00;100495.47;5073795;28;20508;-75
2023/12/06 00:05:10;;;;;;;5.67;3.33;;;;;;;1.19;100.00;100497.06;5074034;28;20514;-74
2023/12/06 00:07:38;;;;;;;5.17;4.10;;;;;;;1.20;100.00;100496.03;5074039;28;20434;-74
2023/12/06 00:10:05;;;;;;;5.17;2.60;;;;;;;1.24;100.00;100502.53;5074414;28;20437;-75
2023/12/06 00:12:31;;;;;;;4.67;4.27;;;;;;;1.27;100.00;100491.34;5073776;28;20850;-74
2023/12/06 00:14:58;;;;;;;5.10;3.33;;;;;;;1.29;100.00;100493.78;5073654;28;20885;-74
2023/12/06 00:17:25;;;;;;;4.60;3.47;;;;;;;1.29;100.00;100488.44;5074025;28;20520;-74
2023/12/06 00:19:51;;;;;;;7.67;5.00;;;;;;;1.27;100.00;100494.00;5073762;28;20448;-75
2023/12/06 00:22:18;;;;;;;4.33;3.13;;;;;;;1.30;100.00;100481.25;5074009;28;20432;-74
2023/12/06 00:24:46;;;;;;;8.83;5.90;;;;;;;1.26;100.00;100481.72;5073709;28;20552;-73
2023/12/06 00:27:12;;;;;;;11.53;2.70;;;;;;;1.24;100.00;100483.03;5073916;28;20465;-73
2023/12/06 00:29:39;;;;;;;5.97;4.50;;;;;;;1.31;100.00;100485.53;5073279;28;20491;-74
2023/12/06 00:32:06;;;;;;;5.03;3.13;;;;;;;1.32;100.00;100482.63;5073636;28;20480;-74
2023/12/06 00:34:32;;;;;;;19.43;4.30;;;;;;;1.27;100.00;100478.00;5073990;28;20461;-74
2023/12/06 00:36:59;;;;;;;9.03;4.23;;;;;;;1.26;100.00;100480.91;5073958;28;20441;-74
2023/12/06 00:39:26;;;;;;;9.00;5.10;;;;;;;1.30;100.00;100479.38;5073669;28;20441;-73
2023/12/06 00:41:54;;;;;;;5.93;3.93;;;;;;;1.28;100.00;100484.16;5073588;28;20517;-74
2023/12/06 00:44:20;;;;;;;6.60;5.17;;;;;;;1.29;100.00;100480.44;5073652;28;20484;-74
2023/12/06 00:46:47;;;;;;;8.43;5.57;;;;;;;1.30;100.00;100487.41;5073735;28;20520;-74
2023/12/06 00:49:13;;;;;;;4.57;2.40;;;;;;;1.35;100.00;100490.16;5073853;28;20532;-74
2023/12/06 00:51:40;;;;;;;6.37;2.47;;;;;;;1.38;100.00;100495.00;5073740;28;20587;-74
2023/12/06 00:54:07;;;;;;;4.50;2.87;;;;;;;1.35;100.00;100494.69;5073704;28;20495;-74
2023/12/06 00:56:34;;;;;;;7.17;4.43;;;;;;;1.33;100.00;100492.25;5073124;28;20831;-74
2023/12/06 00:59:04;;;;;;;5.40;4.20;;;;;;;1.31;100.00;100489.00;5073103;28;20834;-74
2023/12/06 01:01:30;;;;;;;7.37;5.50;;;;;;;1.32;100.00;100489.81;5073311;28;20434;-74
2023/12/06 01:03:57;;;;;;;5.50;2.43;;;;;;;1.35;100.00;100487.47;5073360;28;20464;-74
2023/12/06 01:06:24;;;;;;;6.87;3.70;;;;;;;1.37;100.00;100485.34;5073348;28;20445;-74
2023/12/06 01:08:50;;;;;;;14.30;4.97;;;;;;;1.45;100.00;100495.63;5075577;28;20441;-73
2023/12/06 01:11:17;;;;;;;7.60;4.47;;;;;;;1.42;100.00;100500.66;5076966;28;20552;-74
2023/12/06 01:13:44;;;;;;;9.63;4.47;;;;;;;1.43;100.00;100500.41;5091145;22;20513;-69
2023/12/06 01:16:12;;;;;;;5.93;3.40;;;;;;;1.44;100.00;100502.03;5077502;28;20473;-69
2023/12/06 01:18:39;;;;;;;5.30;3.77;;;;;;;1.43;100.00;100502.28;5077746;28;20445;-69
2023/12/06 01:21:06;;;;;;;7.53;2.83;;;;;;;1.45;100.00;100502.84;5078058;28;20473;-69
2023/12/06 01:23:32;;;;;;;12.73;4.20;;;;;;;1.42;100.00;100506.00;5077181;28;20465;-69
2023/12/06 01:25:59;;;;;;;6.00;4.80;;;;;;;1.37;100.00;100513.91;5077238;28;20547;-69
2023/12/06 01:28:25;;;;;;;5.30;4.77;;;;;;;1.42;100.00;100511.34;5077304;28;20451;-69
2023/12/06 01:30:52;;;;;;;5.07;2.03;;;;;;;1.42;100.00;100516.69;5076741;28;20858;-70
2023/12/06 01:33:21;;;;;;;7.40;5.20;;;;;;;1.42;100.00;100512.16;5076670;28;20531;-69
2023/12/06 01:35:47;;;;;;;7.80;4.17;;;;;;;1.33;100.00;100513.59;5077427;28;20437;-69
2023/12/06 01:38:14;;;;;;;6.27;1.73;;;;;;;1.35;100.00;100508.81;5076930;28;20476;-69
2023/12/06 01:40:40;;;;;;;5.77;2.93;;;;;;;1.36;100.00;100506.97;5077105;28;20520;-69
2023/12/06 01:43:08;;;;;;;5.33;3.60;;;;;;;1.34;100.00;100511.75;5077143;28;20445;-69
2023/12/06 01:45:34;;;;;;;13.20;6.37;;;;;;;1.35;100.00;100519.50;5076766;28;20464;-69
2023/12/06 01:48:03;;;;;;;12.73;3.77;;;;;;;1.35;100.00;100510.69;5076715;28;20878;-69
2023/12/06 01:50:33;;;;;;;5.17;3.80;;;;;;;1.36;100.00;100513.09;5076754;28;20475;-69
2023/12/06 01:53:01;;;;;;;4.60;3.63;;;;;;;1.33;100.00;100520.78;5076563;28;20534;-69
2023/12/06 01:55:28;;;;;;;8.63;5.23;;;;;;;1.33;100.00;100507.44;5076514;28;20485;-69
2023/12/06 01:57:55;;;;;;;5.90;3.83;;;;;;;1.34;100.00;100512.53;5076299;28;20528;-69
2023/12/06 02:00:22;;;;;;;4.93;2.20;;;;;;;1.36;100.00;100506.97;5076255;28;20563;-69
2023/12/06 02:02:49;;;;;;;9.87;4.40;;;;;;;1.31;100.00;100504.22;5076202;28;20461;-69
2023/12/06 02:05:15;;;;;;;5.80;4.97;;;;;;;1.29;100.00;100514.31;5075968;28;21054;-69
2023/12/06 02:07:44;;;;;;;4.10;2.10;;;;;;;1.29;100.00;100512.47;5076495;28;20588;-68
2023/12/06 02:10:10;;;;;;;8.20;3.87;;;;;;;1.34;100.00;100509.88;5076547;28;20472;-66
2023/12/06 02:12:37;;;;;;;3.67;2.53;;;;;;;1.25;100.00;100511.31;5076412;28;20498;-68
2023/12/06 02:15:04;;;;;;;8.40;3.50;;;;;;;1.26;100.00;100508.41;5075994;28;20508;-69
2023/12/06 02:17:32;;;;;;;4.80;3.67;;;;;;;1.29;100.00;100511.66;5076115;28;20901;-68
2023/12/06 02:19:59;;;;;;;10.30;3.70;;;;;;;1.32;100.00;100511.16;5076375;28;20484;-69
2023/12/06 02:22:27;;;;;;;3.67;3.30;;;;;;;1.32;100.00;100511.16;5075846;28;20965;-69
2023/12/06 02:25:00;;;;;;;10.70;5.30;;;;;;;1.35;100.00;100508.00;5075979;28;20548;-69
2023/12/06 02:27:28;;;;;;;6.53;3.03;;;;;;;1.37;100.00;100500.56;5076163;28;20458;-69
2023/12/06 02:29:54;;;;;;;2.73;2.00;;;;;;;1.37;100.00;100506.69;5076374;28;20528;-69
2023/12/06 02:32:21;;;;;;;3.80;2.00;;;;;;;1.40;100.00;100508.09;5075922;28;20517;-68
2023/12/06 02:34:50;;;;;;;5.93;3.23;;;;;;;1.35;100.00;100505.34;5075844;28;20505;-70
2023/12/06 02:37:20;;;;;;;3.83;1.37;;;;;;;1.40;100.00;100492.09;5075798;28;20537;-69
2023/12/06 02:39:48;;;;;;;5.37;3.40;;;;;;;1.37;100.00;100498.69;5075451;28;20964;-69
2023/12/06 02:42:15;;;;;;;8.13;4.90;;;;;;;1.35;100.00;100495.47;5075809;28;20483;-69
2023/12/06 02:44:43;;;;;;;7.77;6.17;;;;;;;1.39;100.00;100493.13;5075645;28;20797;-70
2023/12/06 02:47:10;;;;;;;8.30;4.40;;;;;;;1.38;100.00;100492.34;5075728;28;20437;-69
2023/12/06 02:49:36;;;;;;;7.03;3.27;;;;;;;1.38;100.00;100499.53;5075605;28;20443;-70
2023/12/06 02:52:04;;;;;;;2.83;2.00;;;;;;;1.39;100.00;100491.28;5075376;28;20852;-69
2023/12/06 02:54:30;;;;;;;5.40;2.37;;;;;;;1.38;100.00;100491.53;5075490;28;20522;-69
2023/12/06 02:56:57;;;;;;;10.10;3.43;;;;;;;1.38;100.00;100484.31;5075794;28;20452;-71
2023/12/06 02:59:23;;;;;;;5.40;3.53;;;;;;;1.38;100.00;100486.19;5076062;28;20863;-69
2023/12/06 03:01:51;;;;;;;11.47;3.63;;;;;;;1.44;100.00;100488.69;5075312;28;20474;-69
2023/12/06 03:04:18;;;;;;;6.57;4.90;;;;;;;1.43;100.00;100487.06;5075389;28;20464;-69
2023/12/06 03:06:44;;;;;;;3.60;2.70;;;;;;;1.44;100.00;100485.22;5075145;28;20440;-69
2023/12/06 03:09:11;;;;;;;9.50;2.87;;;;;;;1.43;100.00;100483.59;5075222;28;20941;-69
2023/12/06 03:11:38;;;;;;;7.40;4.00;;;;;;;1.41;100.00;100491.84;5075534;28;20444;-69
2023/12/06 03:14:04;;;;;;;9.70;4.90;;;;;;;1.39;100.00;100482.47;5074830;28;20475;-69
2023/12/06 03:16:31;;;;;;;7.63;3.33;;;;;;;1.43;100.00;100480.94;5075538;28;20528;-70
2023/12/06 03:18:59;;;;;;;11.43;4.13;;;;;;;1.41;100.00;100478.50;5075047;28;20491;-69
2023/12/06 03:21:26;;;;;;;8.80;4.23;;;;;;;1.39;100.00;100475.25;5075114;28;20886;-69
2023/12/06 03:23:53;;;;;;;4.87;1.63;;;;;;;1.43;100.00;100479.06;5075526;28;20492;-70
2023/12/06 03:26:19;;;;;;;5.13;4.13;;;;;;;1.40;100.00;100474.22;5075173;28;20465;-70
2023/12/06 03:28:46;;;;;;;10.83;4.30;;;;;;;1.42;100.00;100474.00;5074947;28;20559;-69
2023/12/06 03:31:12;;;;;;;5.20;4.70;;;;;;;1.47;100.00;100480.19;5074419;28;20491;-69
2023/12/06 03:33:39;;;;;;;4.57;4.03;;;;;;;1.43;100.00;100476.41;5075166;28;20481;-70
2023/12/06 03:36:10;;;;;;;4.53;2.80;;;;;;;1.45;100.00;100468.13;5075164;28;20863;-70
2023/12/06 03:38:37;;;;;;;6.93;4.60;;;;;;;1.49;100.00;100470.06;5074783;28;20426;-70
2023/12/06 03:41:04;;;;;;;5.20;2.20;;;;;;;1.50;100.00;100474.34;5074303;28;20482;-69
2023/12/06 03:43:31;;;;;;;10.50;3.80;;;;;;;1.54;100.00;100471.22;5074521;28;20540;-70
2023/12/06 03:45:57;;;;;;;5.97;2.30;;;;;;;1.58;100.00;100477.69;5074510;28;20448;-71
2023/12/06 03:48:24;;;;;;;3.77;2.10;;;;;;;1.61;100.00;100475.34;5074972;28;20453;-69
2023/12/06 03:50:50;;;;;;;4.57;2.30;;;;;;;1.61;100.00;100483.34;5074557;28;20465;-69
2023/12/06 03:53:18;;;;;;;4.70;3.00;;;;;;;1.61;100.00;100479.88;5074375;28;20923;-68
2023/12/06 03:55:45;;;;;;;11.43;4.50;;;;;;;1.60;100.00;100487.06;5074489;28;20517;-69
2023/12/06 03:58:12;;;;;;;13.90;4.50;;;;;;;1.62;100.00;100478.81;5074180;28;20933;-69
2023/12/06 04:00:39;;;;;;;7.73;3.70;;;;;;;1.62;100.00;100479.63;5074715;28;20520;-68
2023/12/06 04:03:07;;;;;;;5.70;3.30;;;;;;;1.63;100.00;100486.56;5074281;28;20465;-69
2023/12/06 04:05:34;;;;;;;23.80;3.20;;;;;;;1.63;100.00;100488.44;5073838;28;20457;-69
2023/12/06 04:08:01;;;;;;;6.60;3.40;;;;;;;1.59;100.00;100487.31;5074215;28;20540;-69
2023/12/06 04:10:29;;;;;;;11.57;6.30;;;;;;;1.60;100.00;100486.28;5073844;28;20473;-69
2023/12/06 04:12:55;;;;;;;7.00;3.80;;;;;;;1.56;100.00;100491.28;5073942;28;20487;-68
2023/12/06 04:15:22;;;;;;;4.87;2.40;;;;;;;1.52;100.00;100490.94;5073699;28;20468;-68
2023/12/06 04:17:48;;;;;;;5.10;2.73;;;;;;;1.56;100.00;100491.28;5074425;28;20469;-68
2023/12/06 04:20:15;;;;;;;7.80;4.80;;;;;;;1.57;100.00;100490.22;5073926;28;20520;-68
2023/12/06 04:22:42;;;;;;;6.47;4.33;;;;;;;1.53;100.00;100497.09;5073755;28;20476;-69
2023/12/06 04:25:09;;;;;;;8.30;2.80;;;;;;;1.51;100.00;100497.34;5073983;28;20497;-69
2023/12/06 04:27:37;;;;;;;8.07;4.70;;;;;;;1.56;100.00;100485.13;5073850;28;20437;-70
2023/12/06 04:30:05;;;;;;;9.60;3.57;;;;;;;1.55;100.00;100488.84;5073951;28;20529;-69
2023/12/06 04:32:31;;;;;;;6.93;3.57;;;;;;;1.51;100.00;100499.22;5074108;28;20481;-70
2023/12/06 04:34:58;;;;;;;15.17;6.27;;;;;;;1.51;100.00;100496.53;5073857;28;20504;-68
2023/12/06 04:37:25;;;;;;;6.47;5.23;;;;;;;1.52;100.00;100495.47;5073906;28;20441;-68
2023/12/06 04:39:52;;;;;;;4.70;1.80;;;;;;;1.51;100.00;100492.00;5073765;28;20465;-68
2023/12/06 04:42:19;;;;;;;11.53;4.50;;;;;;;1.51;100.00;100493.88;5073079;28;20465;-68
2023/12/06 04:44:47;;;;;;;15.90;4.73;;;;;;;1.50;100.00;100489.56;5073851;28;20565;-68
2023/12/06 04:47:13;;;;;;;9.47;3.67;;;;;;;1.48;100.00;100486.34;5073834;28;20437;-68
2023/12/06 04:49:40;;;;;;;4.00;2.63;;;;;;;1.51;100.00;100497.34;5074114;28;20438;-68
2023/12/06 04:52:07;;;;;;;7.97;3.30;;;;;;;1.51;100.00;100486.69;5074099;28;20473;-68
2023/12/06 04:54:33;;;;;;;3.60;2.27;;;;;;;1.56;100.00;100485.94;5073448;28;21014;-68
2023/12/06 04:57:00;;;;;;;5.43;2.73;;;;;;;1.57;100.00;100487.56;5073772;28;20445;-68
2023/12/06 04:59:26;;;;;;;3.63;2.50;;;;;;;1.58;100.00;100494.50;5073376;28;20465;-68
2023/12/06 05:01:54;;;;;;;5.10;2.50;;;;;;;1.58;100.00;100485.69;5073898;28;20465;-68
2023/12/06 05:04:22;;;;;;;7.83;4.33;;;;;;;1.58;100.00;100489.16;5073193;28;20972;-68
2023/12/06 05:06:49;;;;;;;15.63;3.77;;;;;;;1.60;100.00;100492.41;5073403;28;20441;-68
2023/12/06 05:09:15;;;;;;;7.30;3.80;;;;;;;1.59;100.00;100490.78;5073571;28;20437;-67
2023/12/06 05:11:42;;;;;;;5.70;3.80;;;;;;;1.60;100.00;100495.09;5073978;28;20444;-68
2023/12/06 05:14:08;;;;;;;7.17;3.93;;;;;;;1.63;100.00;100497.25;5073272;28;20523;-67
2023/12/06 05:16:35;;;;;;;5.20;2.00;;;;;;;1.62;100.00;100492.97;5073802;28;20452;-68
2023/12/06 05:19:03;;;;;;;7.43;3.90;;;;;;;1.56;100.00;100491.28;5073629;28;20502;-68
2023/12/06 05:21:30;;;;;;;13.30;6.10;;;;;;;1.56;100.00;100493.94;5073880;28;20520;-68
2023/12/06 05:23:56;;;;;;;3.60;2.87;;;;;;;1.61;100.00;100493.22;5074001;28;20461;-68
2023/12/06 05:26:25;;;;;;;10.70;4.47;;;;;;;1.57;100.00;100497.41;5073568;28;20918;-68
2023/12/06 05:28:52;;;;;;;3.43;3.00;;;;;;;1.57;100.00;100492.09;5073753;28;20524;-68
2023/12/06 05:31:19;;;;;;;6.27;4.10;;;;;;;1.57;100.00;100492.88;5073725;28;20472;-68
2023/12/06 05:33:45;;;;;;;6.47;3.03;;;;;;;1.59;100.00;100490.78;5073879;28;20568;-68
2023/12/06 05:36:13;;;;;;;4.60;3.13;;;;;;;1.59;100.00;100495.31;5073235;28;20437;-68
2023/12/06 05:38:40;;;;;;;4.40;3.23;;;;;;;1.60;100.00;100496.94;5073742;28;20516;-68
2023/12/06 05:41:07;;;;;;;5.50;3.70;;;;;;;1.55;100.00;100495.00;5073173;28;20646;-68
2023/12/06 05:43:33;;;;;;;8.67;4.97;;;;;;;1.51;100.00;100499.22;5073482;28;20794;-68
2023/12/06 05:46:00;;;;;;;14.33;3.10;;;;;;;1.51;100.00;100494.69;5073225;28;20520;-68
2023/12/06 05:48:27;;;;;;;14.20;3.13;;;;;;;1.50;100.00;100492.22;5073721;28;20447;-68
2023/12/06 05:50:53;;;;;;;6.50;2.93;;;;;;;1.54;100.00;100493.38;5073637;28;20528;-68
2023/12/06 05:53:22;;;;;;;5.23;3.00;;;;;;;1.50;100.00;100500.25;5072897;28;20581;-69
2023/12/06 05:55:49;;;;;;;10.70;4.60;;;;;;;1.51;100.00;100499.22;5076798;28;20518;-65
2023/12/06 05:58:15;;;;;;;8.40;2.40;;;;;;;1.54;100.00;100503.25;5076999;28;20429;-68
2023/12/06 06:00:42;;;;;;;6.70;2.73;;;;;;;1.58;100.00;100499.84;5076766;28;20441;-67
2023/12/06 06:03:08;;;;;;;5.33;3.00;;;;;;;1.55;100.00;100499.50;5076687;28;20525;-69
2023/12/06 06:05:35;;;;;;;5.40;3.23;;;;;;;1.57;100.00;100497.41;5076720;28;20453;-68
2023/12/06 06:08:02;;;;;;;4.30;3.30;;;;;;;1.61;100.00;100502.03;5076661;28;20945;-67
2023/12/06 06:10:30;;;;;;;7.30;3.90;;;;;;;1.62;100.00;100494.81;5076816;28;20900;-68
2023/12/06 06:12:57;;;;;;;4.40;2.90;;;;;;;1.62;100.00;100498.31;5077094;28;20515;-66
2023/12/06 06:15:24;;;;;;;6.03;2.47;;;;;;;1.61;100.00;100499.38;5076381;28;20877;-67
2023/12/06 06:17:50;;;;;;;7.40;3.60;;;;;;;1.62;100.00;100503.63;5076423;28;20525;-66
2023/12/06 06:20:17;;;;;;;5.00;2.80;;;;;;;1.64;100.00;100509.56;5076580;28;20532;-66
2023/12/06 06:22:44;;;;;;;5.40;3.10;;;;;;;1.62;100.00;100508.19;5076900;28;20511;-67
2023/12/06 06:25:10;;;;;;;16.10;4.10;;;;;;;1.65;100.00;100500.50;5076090;28;20507;-67
2023/12/06 06:27:38;;;;;;;5.87;3.63;;;;;;;1.62;100.00;100506.31;5075754;28;21004;-66
2023/12/06 06:30:06;;;;;;;3.23;2.00;;;;;;;1.66;100.00;100512.78;5075998;28;20452;-66
2023/12/06 06:32:33;;;;;;;6.53;2.60;;;;;;;1.67;100.00;100506.38;5076279;28;20441;-66
2023/12/06 06:34:59;;;;;;;16.60;6.20;;;;;;;1.69;100.00;100509.63;5075720;28;20512;-66
2023/12/06 06:37:27;;;;;;;4.77;2.57;;;;;;;1.69;100.00;100512.31;5075961;28;20526;-66
2023/12/06 06:39:54;;;;;;;9.87;6.10;;;;;;;1.73;100.00;100508.09;5075735;28;20477;-67
2023/12/06 06:42:20;;;;;;;11.87;2.70;;;;;;;1.80;100.00;100504.44;5075588;28;20437;-67
2023/12/06 06:44:51;;;;;;;4.20;3.80;;;;;;;1.83;100.00;100520.78;5075681;28;20895;-67
2023/12/06 06:47:18;;;;;;;5.03;3.20;;;;;;;1.76;100.00;100518.25;5076265;28;20906;-67
2023/12/06 06:49:45;;;;;;;9.80;4.47;;;;;;;1.73;100.00;100513.44;5075966;28;20445;-66
2023/12/06 06:52:12;;;;;;;5.03;3.33;;;;;;;1.73;100.00;100518.78;5075548;28;20442;-66
2023/12/06 06:54:38;;;;;;;4.33;2.50;;;;;;;1.79;100.00;100510.84;5075391;28;20572;-66
2023/12/06 06:57:05;;;;;;;7.40;3.57;;;;;;;1.81;100.00;100519.41;5075267;28;20600;-66
2023/12/06 06:59:32;;;;;;;6.17;2.83;;;;;;;1.74;100.00;100519.59;5075477;28;20615;-66
2023/12/06 07:02:00;;;;;;;6.53;2.83;;;;;;;1.80;100.00;100529.28;5075399;28;20477;-66
2023/12/06 07:04:26;;;;;;;3.17;2.20;;;;;;;1.74;100.00;100524.91;5075420;28;20527;-66
2023/12/06 07:06:53;;;;;;;6.90;3.27;;;;;;;1.69;100.00;100522.97;5074479;28;20520;-66
2023/12/06 07:09:19;;;;;;;10.80;5.93;;;;;;;1.67;100.00;100537.63;5075826;28;20524;-65
2023/12/06 07:11:46;;;;;;;3.20;1.73;;;;;;;1.69;100.00;100532.84;5074957;28;20480;-66
2023/12/06 07:14:13;;;;;;;3.40;2.00;;;;;;;1.60;100.00;100534.31;5088546;22;20501;-71
2023/12/06 07:16:39;;;;;;;3.70;3.30;;;;;;;1.60;100.00;100540.47;5075167;28;20520;-69
2023/12/06 07:19:07;;;;;;;8.47;3.90;;;;;;;1.58;100.00;100544.41;5074964;28;20465;-70
2023/12/06 07:21:34;;;;;;;7.13;4.77;;;;;;;1.56;100.00;100544.66;5074745;28;20437;-72
2023/12/06 07:24:00;;;;;;;6.50;3.00;;;;;;;1.59;100.00;100543.34;5075012;28;21007;-72
2023/12/06 07:26:27;;;;;;;4.40;2.90;;;;;;;1.57;100.00;100540.13;5075634;28;20449;-72
2023/12/06 07:28:54;;;;;;;10.90;2.60;;;;;;;1.63;100.00;100549.81;5074952;28;20433;-73
2023/12/06 07:31:20;;;;;;;9.03;4.20;;;;;;;1.63;100.00;100550.63;5074796;28;20530;-71
2023/12/06 07:33:50;;;;;;;11.37;4.53;;;;;;;1.62;100.00;100549.03;5075012;28;20588;-73
2023/12/06 07:36:18;;;;;;;5.67;3.50;;;;;;;1.59;100.00;100557.50;5074348;28;20987;-72
2023/12/06 07:38:45;;;;;;;2.90;2.07;;;;;;;1.59;100.00;100560.19;5074358;28;20493;-72
2023/12/06 07:41:12;;;;;;;11.97;2.87;;;;;;;1.65;100.00;100566.44;5074797;28;20528;-73
2023/12/06 07:43:38;;;;;;;6.10;2.73;;;;;;;1.65;100.00;100564.56;5074806;28;20502;-73
2023/12/06 07:46:05;;;;;;;16.17;3.73;;;;;;;1.61;100.00;100562.63;5074504;28;20892;-73
2023/12/06 07:48:33;;;;;;;8.07;3.73;;;;;;;1.57;100.00;100567.63;5074770;28;20483;-71
2023/12/06 07:51:00;;;;;;;6.03;2.73;;;;;;;1.58;100.00;100571.91;5074118;28;21006;-71
2023/12/06 07:53:28;;;;;;;6.37;2.90;;;;;;;1.61;100.00;100573.31;5074189;28;20512;-71
2023/12/06 07:55:55;;;;;;;2.83;2.10;;;;;;;1.61;100.00;100567.97;5074054;28;20437;-71
2023/12/06 07:58:22;;;;;;;9.67;5.23;;;;;;;1.61;100.00;100565.28;5074004;28;20473;-71
2023/12/06 08:00:49;;;;;;;6.23;4.17;;;;;;;1.57;100.00;100567.63;5074258;28;20448;-71
2023/12/06 08:03:16;;;;;;;6.73;3.73;;;;;;;1.61;100.00;100563.44;5074366;28;20449;-71
2023/12/06 08:05:43;;;;;;;9.47;4.83;;;;;;;1.63;100.00;100572.00;5073464;28;20450;-72
2023/12/06 08:08:10;;;;;;;6.57;3.03;;;;;;;1.64;100.00;100573.63;5073963;28;20441;-71
2023/12/06 08:10:41;;;;;;;8.93;5.50;;;;;;;1.66;100.00;100568.03;5074269;28;20879;-72
2023/12/06 08:13:08;;;;;;;3.90;2.30;;;;;;;1.66;100.00;100576.84;5074597;28;20809;-71
2023/12/06 08:15:34;;;;;;;5.43;2.67;;;;;;;1.60;100.00;100577.84;5074388;28;20544;-72
2023/12/06 08:18:01;;;;;;;4.57;2.87;;;;;;;1.57;100.00;100577.50;5074260;28;20504;-71
2023/12/06 08:20:28;;;;;;;9.27;7.07;;;;;;;1.60;100.00;100582.38;5073815;28;20437;-74
2023/12/06 08:22:57;;;;;;;6.67;2.67;;;;;;;1.58;100.00;100585.25;5073714;28;20516;-74
2023/12/06 08:25:24;;;;;;;3.00;1.80;;;;;;;1.62;100.00;100585.59;5074135;28;20511;-73
2023/12/06 08:27:52;;;;;;;9.37;3.67;;;;;;;1.63;100.00;100581.84;5073955;28;20865;-74
2023/12/06 08:30:18;;;;;;;9.07;5.70;;;;;;;1.68;100.00;100588.13;5073972;28;20524;-74
2023/12/06 08:32:45;;;;;;;12.87;3.87;;;;;;;1.69;100.00;100584.38;5074323;28;20520;-74
2023/12/06 08:35:12;;;;;;;9.40;3.27;;;;;;;1.76;100.00;100578.88;5073426;28;20562;-74
2023/12/06 08:37:40;;;;;;;14.60;4.47;;;;;;;1.73;100.00;100577.50;5073668;28;20857;-74
2023/12/06 08:40:09;;;;;;;7.90;2.90;;;;;;;1.74;100.00;100578.31;5073649;28;20524;-73
2023/12/06 08:42:36;;;;;;;4.53;2.50;;;;;;;1.73;100.00;100584.72;5073969;28;20850;-73
2023/12/06 08:45:05;;;;;;;9.37;4.17;;;;;;;1.82;100.00;100585.13;5073725;28;20465;-73
2023/12/06 08:47:32;;;;;;;7.33;4.00;;;;;;;1.80;100.00;100584.53;5073443;28;21007;-76
2023/12/06 08:49:59;;;;;;;5.30;2.40;;;;;;;1.79;100.00;100580.25;5073607;28;20478;-73
2023/12/06 08:52:25;;;;;;;9.50;2.50;;;;;;;1.85;100.00;100587.28;5073426;28;20445;-73
2023/12/06 08:54:52;;;;;;;4.73;2.57;;;;;;;1.87;100.00;100585.19;5073816;28;20489;-71
2023/12/06 08:57:20;;;;;;;3.80;3.20;;;;;;;1.89;100.00;100583.09;5073986;28;20441;-74
2023/12/06 08:59:46;;;;;;;4.53;2.80;;;;;;;1.89;100.00;100591.91;5073688;28;20477;-74
2023/12/06 09:02:16;;;;;;;4.77;3.93;;;;;;;1.89;100.00;100591.09;5073719;28;20840;-73
2023/12/06 09:04:42;;;;;;;12.60;3.53;;;;;;;1.89;100.00;100593.75;5074182;28;20544;-73
2023/12/06 09:07:09;;;;;;;7.27;4.37;;;;;;;1.93;100.00;100597.56;5073306;28;20990;-74
2023/12/06 09:09:35;;;;;;;10.43;5.97;;;;;;;1.93;100.00;100601.03;5073632;28;20437;-71
2023/12/06 09:12:02;;;;;;;6.73;3.07;;;;;;;1.96;100.00;100605.09;5073619;28;20480;-73
2023/12/06 09:14:29;;;;;;;6.93;3.63;;;;;;;1.96;100.00;100603.25;5073224;28;20489;-73
2023/12/06 09:16:55;;;;;;;5.30;3.87;;;;;;;1.95;100.00;100606.16;5073603;28;20464;-73
2023/12/06 09:19:23;;;;;;;11.53;2.67;;;;;;;1.99;100.00;100600.09;5073347;28;20437;-73
2023/12/06 09:21:50;;;;;;;11.90;4.47;;;;;;;1.93;100.00;100608.25;5073515;28;20861;-73
2023/12/06 09:24:17;;;;;;;3.20;1.60;;;;;;;1.93;100.00;100608.25;5072955;28;20457;-73
2023/12/06 09:26:44;;;;;;;10.80;3.23;;;;;;;1.98;100.00;100611.00;5072888;28;20445;-74
2023/12/06 09:29:11;;;;;;;5.30;3.47;;;;;;;2.00;100.00;100616.94;5074492;28;20441;-73
2023/12/06 09:31:39;;;;;;;7.40;5.13;;;;;;;2.02;100.00;100604.13;5077085;28;20429;-73
2023/12/06 09:34:07;;;;;;;6.53;4.03;;;;;;;2.00;100.00;100608.91;5076696;28;21069;-73
2023/12/06 09:36:35;;;;;;;13.60;3.90;;;;;;;2.00;100.00;100619.59;5077148;28;20528;-75
2023/12/06 09:39:04;;;;;;;6.57;3.13;;;;;;;2.00;100.00;100611.59;5077221;28;20470;-71
2023/12/06 09:41:32;;;;;;;5.90;2.73;;;;;;;2.03;100.00;100619.91;5077143;28;20433;-72
2023/12/06 09:44:00;;;;;;;12.23;4.40;;;;;;;2.02;100.00;100612.13;5077146;28;20480;-72
2023/12/06 09:46:27;;;;;;;9.17;3.70;;;;;;;1.96;100.00;100615.78;5077005;28;20444;-72
2023/12/06 09:48:53;;;;;;;4.73;4.23;;;;;;;1.98;100.00;100622.50;5076821;28;20481;-72
2023/12/06 09:51:22;;;;;;;17.57;5.37;;;;;;;2.02;100.00;100612.94;5076791;28;20468;-72
2023/12/06 09:53:50;;;;;;;5.50;3.13;;;;;;;2.02;100.00;100614.81;5076537;28;20475;-72
2023/12/06 09:56:18;;;;;;;9.13;5.20;;;;;;;2.08;100.00;100619.19;5076852;28;20469;-72
2023/12/06 09:58:45;;;;;;;5.20;3.67;;;;;;;2.12;100.00;100620.28;5076426;28;20444;-72
2023/12/06 10:01:12;;;;;;;5.93;3.83;;;;;;;2.14;100.00;100626.22;5076661;28;20437;-72
2023/12/06 10:03:39;;;;;;;5.93;3.60;;;;;;;2.16;100.00;100617.94;5076854;28;20489;-72
2023/12/06 10:06:06;;;;;;;10.23;6.17;;;;;;;2.19;100.00;100622.81;5076946;28;20480;-72
2023/12/06 10:08:34;;;;;;;9.43;4.47;;;;;;;2.21;100.00;100621.53;5076821;28;20465;-72
2023/12/06 10:11:04;;;;;;;4.10;2.80;;;;;;;2.22;100.00;100614.31;5076496;28;20437;-71
2023/12/06 10:13:32;;;;;;;4.57;2.60;;;;;;;2.18;100.00;100615.88;5076209;28;20924;-71
2023/12/06 10:16:00;;;;;;;4.17;2.13;;;;;;;2.15;100.00;100619.81;5076768;28;20469;-71
2023/12/06 10:18:26;;;;;;;19.27;5.90;;;;;;;2.12;100.00;100609.59;5076434;28;21027;-71
2023/12/06 10:20:53;;;;;;;6.60;4.47;;;;;;;2.16;100.00;100616.09;5076458;28;20437;-71
2023/12/06 10:23:20;;;;;;;6.57;3.97;;;;;;;2.17;100.00;100608.88;5076462;28;20437;-71
2023/12/06 10:25:47;;;;;;;3.27;1.87;;;;;;;2.14;100.00;100607.53;5076405;28;20464;-71
2023/12/06 10:28:17;;;;;;;7.57;4.50;;;;;;;2.12;100.00;100612.28;5076400;28;20437;-71
2023/12/06 10:30:44;;;;;;;4.33;2.93;;;;;;;2.14;100.00;100610.19;5076547;28;20437;-71
2023/12/06 10:33:12;;;;;;;5.00;3.13;;;;;;;2.13;100.00;100613.91;5076080;28;20544;-71
2023/12/06 10:35:40;;;;;;;2.20;1.23;;;;;;;2.11;100.00;100610.66;5076470;28;20481;-71
2023/12/06 10:38:08;;;;;;;6.77;3.97;;;;;;;2.13;100.00;100605.91;5076359;28;20473;-70
2023/12/06 10:40:35;;;;;;;11.60;3.53;;;;;;;2.12;100.00;100617.63;5076226;28;20446;-70
2023/12/06 10:43:06;;;;;;;7.40;2.67;;;;;;;2.13;100.00;100605.91;5075788;28;20480;-70
2023/12/06 10:45:34;;;;;;;7.77;3.50;;;;;;;2.13;100.00;100607.78;5076049;28;20543;-71
2023/12/06 10:48:05;;;;;;;5.57;3.57;;;;;;;2.14;100.00;100607.53;5076674;28;20469;-72
2023/12/06 10:50:34;;;;;;;5.27;3.40;;;;;;;2.05;100.00;100609.00;5075880;28;20897;-73
2023/12/06 10:53:01;;;;;;;11.90;2.77;;;;;;;2.14;100.00;100604.03;5076128;28;20450;-71
2023/12/06 10:55:30;;;;;;;5.90;3.33;;;;;;;2.17;100.00;100611.53;5075550;28;20538;-71
2023/12/06 10:57:59;;;;;;;13.80;3.00;;;;;;;2.16;100.00;100608.06;5075833;28;20445;-71
2023/12/06 11:00:27;;;;;;;5.57;3.13;;;;;;;2.19;100.00;100606.78;5075723;28;20809;-71
2023/12/06 11:02:55;;;;;;;11.67;3.87;;;;;;;2.21;100.00;100605.50;5075744;28;20544;-71
2023/12/06 11:05:25;;;;;;;4.13;1.83;;;;;;;2.17;100.00;100615.06;5075837;28;20537;-71
2023/12/06 11:08:11;;;;;;;4.33;2.23;;;;;;;2.14;100.00;100602.19;5076017;28;20445;-71
2023/12/06 11:10:51;;;;;;;7.73;2.40;;;;;;;2.06;100.00;100602.59;5075231;28;20844;-71
2023/12/06 11:13:32;;;;;;;7.77;3.87;;;;;;;2.08;100.00;100597.81;5075480;28;20524;-71
2023/12/06 11:16:08;;;;;;;2.43;1.20;;;;;;;2.08;100.00;100600.50;5075468;28;20558;-71
2023/12/06 11:18:44;;;;;;;6.37;3.40;;;;;;;2.10;100.00;100600.25;5075430;28;20422;-71
2023/12/06 11:21:12;;;;;;;6.37;3.43;;;;;;;2.09;100.00;100599.44;5075364;28;20429;-71
2023/12/06 11:23:39;;;;;;;4.47;2.73;;;;;;;2.13;100.00;100591.75;5075327;28;20485;-71